sensor_id;sensor_type;location;lat;lon;timestamp;temperature;humidity
1534;DHT22;760;48.822;9.304;2023-05-27T04:06:20;12.60;99.90
1534;DHT22;760;48.822;9.304;2023-05-27T04:08:46;12.60;99.90
1534;DHT22;760;48.822;9.304;2023-05-27T04:11:12;12.60;99.90
1534;DHT22;760;48.822;9.304;2023-05-27T04:13:38;12.60;99.90
1534;DHT22;760;48.822;9.304;2023-05-27T04:16:04;12.60;99.90
1534;DHT22;760;48.822;9.304;2023-05-27T04:18:30;12.60;99.90
1534;DHT22;760;48.822;9.304;2023-05-27T04:20:57;12.70;99.90
1534;DHT22;760;48.822;9.304;2023-05-27T04:23:23;12.70;99.90
1534;DHT22;760;48.822;9.304;2023-05-27T04:25:49;12.80;99.90
1534;DHT22;760;48.822;9.304;2023-05-27T04:28:16;12.80;99.90
1534;DHT22;760;48.822;9.304;2023-05-27T04:30:42;12.90;99.90
1534;DHT22;760;48.822;9.304;2023-05-27T04:33:08;13.10;99.90
1534;DHT22;760;48.822;9.304;2023-05-27T04:35:34;13.30;99.90
1534;DHT22;760;48.822;9.304;2023-05-27T04:38:00;13.50;99.90
1534;DHT22;760;48.822;9.304;2023-05-27T04:40:27;13.70;99.90
1534;DHT22;760;48.822;9.304;2023-05-27T04:42:54;14.00;99.90
1534;DHT22;760;48.822;9.304;2023-05-27T04:45:20;14.10;99.90
1534;DHT22;760;48.822;9.304;2023-05-27T04:47:46;14.30;99.90
1534;DHT22;760;48.822;9.304;2023-05-27T04:50:13;14.50;99.80
1534;DHT22;760;48.822;9.304;2023-05-27T04:52:38;14.50;99.20
1534;DHT22;760;48.822;9.304;2023-05-27T04:55:07;14.50;99.20
1534;DHT22;760;48.822;9.304;2023-05-27T04:57:34;14.50;99.40
1534;DHT22;760;48.822;9.304;2023-05-27T05:00:04;14.50;99.10
1534;DHT22;760;48.822;9.304;2023-05-27T05:02:30;14.60;99.30
1534;DHT22;760;48.822;9.304;2023-05-27T05:05:06;14.60;99.20
1534;DHT22;760;48.822;9.304;2023-05-27T05:07:34;14.70;99.00
1534;DHT22;760;48.822;9.304;2023-05-27T05:10:03;14.80;99.00
1534;DHT22;760;48.822;9.304;2023-05-27T05:12:29;14.90;98.70
1534;DHT22;760;48.822;9.304;2023-05-27T05:14:55;15.00;98.60
1534;DHT22;760;48.822;9.304;2023-05-27T05:17:21;15.00;98.80
1534;DHT22;760;48.822;9.304;2023-05-27T05:19:50;15.10;98.60
1534;DHT22;760;48.822;9.304;2023-05-27T05:22:16;15.10;98.40
1534;DHT22;760;48.822;9.304;2023-05-27T05:24:45;15.10;98.20
1534;DHT22;760;48.822;9.304;2023-05-27T05:27:11;15.20;98.20
1534;DHT22;760;48.822;9.304;2023-05-27T05:29:36;15.20;98.10
1534;DHT22;760;48.822;9.304;2023-05-27T05:32:03;15.30;98.20
1534;DHT22;760;48.822;9.304;2023-05-27T05:34:29;15.30;98.20
1534;DHT22;760;48.822;9.304;2023-05-27T05:36:54;15.50;98.20
1534;DHT22;760;48.822;9.304;2023-05-27T05:39:20;15.60;97.80
1534;DHT22;760;48.822;9.304;2023-05-27T05:41:46;15.70;97.80
1534;DHT22;760;48.822;9.304;2023-05-27T05:44:12;15.80;97.70
1534;DHT22;760;48.822;9.304;2023-05-27T05:46:38;15.90;97.60
1534;DHT22;760;48.822;9.304;2023-05-27T05:49:04;15.90;97.10
1534;DHT22;760;48.822;9.304;2023-05-27T05:51:29;16.00;97.10
1534;DHT22;760;48.822;9.304;2023-05-27T05:53:56;16.20;96.70
1534;DHT22;760;48.822;9.304;2023-05-27T05:56:22;16.40;96.40
1534;DHT22;760;48.822;9.304;2023-05-27T05:58:48;16.60;96.40
1534;DHT22;760;48.822;9.304;2023-05-27T06:01:13;16.80;95.80
1534;DHT22;760;48.822;9.304;2023-05-27T06:03:39;17.00;95.40
1534;DHT22;760;48.822;9.304;2023-05-27T06:06:05;17.10;95.20
1534;DHT22;760;48.822;9.304;2023-05-27T06:08:30;17.10;94.50
1534;DHT22;760;48.822;9.304;2023-05-27T06:10:56;17.20;94.70
1534;DHT22;760;48.822;9.304;2023-05-27T06:13:22;17.20;94.60
1534;DHT22;760;48.822;9.304;2023-05-27T06:15:47;17.20;94.80
1534;DHT22;760;48.822;9.304;2023-05-27T06:18:13;17.20;94.00
1534;DHT22;760;48.822;9.304;2023-05-27T06:20:39;17.20;94.30
1534;DHT22;760;48.822;9.304;2023-05-27T06:23:05;17.10;93.90
1534;DHT22;760;48.822;9.304;2023-05-27T06:25:32;17.20;94.10
1534;DHT22;760;48.822;9.304;2023-05-27T06:27:58;17.30;94.80
1534;DHT22;760;48.822;9.304;2023-05-27T06:30:24;17.30;94.70
1534;DHT22;760;48.822;9.304;2023-05-27T06:32:50;17.40;94.60
1534;DHT22;760;48.822;9.304;2023-05-27T06:35:15;17.50;94.60
1534;DHT22;760;48.822;9.304;2023-05-27T06:37:41;17.60;94.70
1534;DHT22;760;48.822;9.304;2023-05-27T06:40:07;17.80;94.60
1534;DHT22;760;48.822;9.304;2023-05-27T06:42:33;18.00;93.90
1534;DHT22;760;48.822;9.304;2023-05-27T06:44:58;18.00;94.00
1534;DHT22;760;48.822;9.304;2023-05-27T06:47:24;18.00;93.80
1534;DHT22;760;48.822;9.304;2023-05-27T06:49:49;18.10;94.20
1534;DHT22;760;48.822;9.304;2023-05-27T06:52:15;18.20;93.80
1534;DHT22;760;48.822;9.304;2023-05-27T06:54:41;18.30;93.20
1534;DHT22;760;48.822;9.304;2023-05-27T06:57:06;18.40;92.70
1534;DHT22;760;48.822;9.304;2023-05-27T06:59:32;18.40;92.60
1534;DHT22;760;48.822;9.304;2023-05-27T07:01:58;18.50;92.40
1534;DHT22;760;48.822;9.304;2023-05-27T07:04:24;18.60;92.30
1534;DHT22;760;48.822;9.304;2023-05-27T07:06:50;18.80;92.90
1534;DHT22;760;48.822;9.304;2023-05-27T07:09:15;18.80;92.00
1534;DHT22;760;48.822;9.304;2023-05-27T07:11:41;18.90;92.80
1534;DHT22;760;48.822;9.304;2023-05-27T07:14:07;18.90;92.30
1534;DHT22;760;48.822;9.304;2023-05-27T07:16:34;19.00;91.90
1534;DHT22;760;48.822;9.304;2023-05-27T07:19:00;19.10;91.80
1534;DHT22;760;48.822;9.304;2023-05-27T07:21:26;19.30;93.00
1534;DHT22;760;48.822;9.304;2023-05-27T07:23:51;19.50;92.70
1534;DHT22;760;48.822;9.304;2023-05-27T07:26:17;19.80;92.20
1534;DHT22;760;48.822;9.304;2023-05-27T07:28:43;20.40;91.00
1534;DHT22;760;48.822;9.304;2023-05-27T07:31:27;21.00;90.70
1534;DHT22;760;48.822;9.304;2023-05-27T07:33:53;22.00;88.90
1534;DHT22;760;48.822;9.304;2023-05-27T07:36:18;22.90;86.40
1534;DHT22;760;48.822;9.304;2023-05-27T07:38:44;24.00;84.40
1534;DHT22;760;48.822;9.304;2023-05-27T07:41:10;24.90;80.50
1534;DHT22;760;48.822;9.304;2023-05-27T07:43:36;26.00;78.30
1534;DHT22;760;48.822;9.304;2023-05-27T07:46:02;26.70;74.80
1534;DHT22;760;48.822;9.304;2023-05-27T07:48:28;27.30;73.90
1534;DHT22;760;48.822;9.304;2023-05-27T07:50:54;28.20;70.50
1534;DHT22;760;48.822;9.304;2023-05-27T07:53:20;29.00;67.60
1534;DHT22;760;48.822;9.304;2023-05-27T07:55:46;29.40;66.20
1534;DHT22;760;48.822;9.304;2023-05-27T07:58:11;29.60;65.20
1534;DHT22;760;48.822;9.304;2023-05-27T08:00:37;29.90;63.00
1534;DHT22;760;48.822;9.304;2023-05-27T08:03:03;30.30;62.70
1534;DHT22;760;48.822;9.304;2023-05-27T08:05:28;30.50;60.70
1534;DHT22;760;48.822;9.304;2023-05-27T08:07:54;30.30;60.50
1534;DHT22;760;48.822;9.304;2023-05-27T08:10:20;30.60;61.30
1534;DHT22;760;48.822;9.304;2023-05-27T08:12:45;31.10;62.40
1534;DHT22;760;48.822;9.304;2023-05-27T08:15:11;31.60;61.00
1534;DHT22;760;48.822;9.304;2023-05-27T08:17:37;31.80;58.70
1534;DHT22;760;48.822;9.304;2023-05-27T08:20:02;32.40;57.50
1534;DHT22;760;48.822;9.304;2023-05-27T08:22:29;32.70;57.10
1534;DHT22;760;48.822;9.304;2023-05-27T08:24:55;32.80;56.70
1534;DHT22;760;48.822;9.304;2023-05-27T08:27:30;32.90;56.60
1534;DHT22;760;48.822;9.304;2023-05-27T08:30:06;33.00;55.10
1534;DHT22;760;48.822;9.304;2023-05-27T08:32:33;32.90;55.80
1534;DHT22;760;48.822;9.304;2023-05-27T08:34:59;33.00;55.70
1534;DHT22;760;48.822;9.304;2023-05-27T08:37:25;33.10;55.10
1534;DHT22;760;48.822;9.304;2023-05-27T08:39:51;32.90;54.50
1534;DHT22;760;48.822;9.304;2023-05-27T08:42:16;32.60;55.10
1534;DHT22;760;48.822;9.304;2023-05-27T08:44:42;32.60;55.00
1534;DHT22;760;48.822;9.304;2023-05-27T08:47:08;32.30;55.10
1534;DHT22;760;48.822;9.304;2023-05-27T08:49:33;32.30;55.20
1534;DHT22;760;48.822;9.304;2023-05-27T08:52:01;32.10;55.10
1534;DHT22;760;48.822;9.304;2023-05-27T08:54:29;31.90;55.00
1534;DHT22;760;48.822;9.304;2023-05-27T08:56:55;31.80;55.40
1534;DHT22;760;48.822;9.304;2023-05-27T08:59:24;31.60;55.60
1534;DHT22;760;48.822;9.304;2023-05-27T09:01:50;31.60;55.40
1534;DHT22;760;48.822;9.304;2023-05-27T09:04:16;31.80;55.90
1534;DHT22;760;48.822;9.304;2023-05-27T09:06:42;32.20;55.90
1534;DHT22;760;48.822;9.304;2023-05-27T09:09:08;32.40;55.00
1534;DHT22;760;48.822;9.304;2023-05-27T09:11:39;31.90;54.70
1534;DHT22;760;48.822;9.304;2023-05-27T09:14:05;31.70;55.40
1534;DHT22;760;48.822;9.304;2023-05-27T09:16:31;31.80;55.20
1534;DHT22;760;48.822;9.304;2023-05-27T09:18:56;31.70;55.60
1534;DHT22;760;48.822;9.304;2023-05-27T09:21:24;31.80;55.80
1534;DHT22;760;48.822;9.304;2023-05-27T09:23:55;32.10;55.60
1534;DHT22;760;48.822;9.304;2023-05-27T09:26:22;32.20;55.60
1534;DHT22;760;48.822;9.304;2023-05-27T09:28:48;32.40;54.60
1534;DHT22;760;48.822;9.304;2023-05-27T09:31:14;32.80;54.40
1534;DHT22;760;48.822;9.304;2023-05-27T09:33:40;33.30;53.90
1534;DHT22;760;48.822;9.304;2023-05-27T09:36:06;33.60;53.30
1534;DHT22;760;48.822;9.304;2023-05-27T09:38:34;33.90;53.20
1534;DHT22;760;48.822;9.304;2023-05-27T09:41:01;34.10;52.80
1534;DHT22;760;48.822;9.304;2023-05-27T09:43:28;33.90;52.90
1534;DHT22;760;48.822;9.304;2023-05-27T09:46:01;33.80;52.90
1534;DHT22;760;48.822;9.304;2023-05-27T09:48:31;34.00;52.80
1534;DHT22;760;48.822;9.304;2023-05-27T09:50:58;34.30;52.80
1534;DHT22;760;48.822;9.304;2023-05-27T09:53:25;34.40;52.80
1534;DHT22;760;48.822;9.304;2023-05-27T09:55:56;34.40;52.40
1534;DHT22;760;48.822;9.304;2023-05-27T09:58:23;34.00;52.20
1534;DHT22;760;48.822;9.304;2023-05-27T10:00:50;33.80;52.40
1534;DHT22;760;48.822;9.304;2023-05-27T10:03:16;33.60;52.40
1534;DHT22;760;48.822;9.304;2023-05-27T10:05:46;33.20;53.20
1534;DHT22;760;48.822;9.304;2023-05-27T10:08:13;33.30;53.50
1534;DHT22;760;48.822;9.304;2023-05-27T10:10:39;33.60;52.80
1534;DHT22;760;48.822;9.304;2023-05-27T10:13:05;33.50;52.40
1534;DHT22;760;48.822;9.304;2023-05-27T10:15:33;33.30;52.20
1534;DHT22;760;48.822;9.304;2023-05-27T10:18:06;33.00;53.00
1534;DHT22;760;48.822;9.304;2023-05-27T10:20:34;32.20;52.70
1534;DHT22;760;48.822;9.304;2023-05-27T10:28:26;30.60;54.30
1534;DHT22;760;48.822;9.304;2023-05-27T10:30:52;30.40;55.20
1534;DHT22;760;48.822;9.304;2023-05-27T10:33:29;30.20;56.00
1534;DHT22;760;48.822;9.304;2023-05-27T10:36:07;30.10;55.20
1534;DHT22;760;48.822;9.304;2023-05-27T10:38:33;30.20;56.00
1534;DHT22;760;48.822;9.304;2023-05-27T10:41:00;30.40;55.30
1534;DHT22;760;48.822;9.304;2023-05-27T10:43:27;30.30;55.40
1534;DHT22;760;48.822;9.304;2023-05-27T10:46:13;30.30;55.60
1534;DHT22;760;48.822;9.304;2023-05-27T10:48:39;30.10;55.20
1534;DHT22;760;48.822;9.304;2023-05-27T10:51:07;29.90;54.80
1534;DHT22;760;48.822;9.304;2023-05-27T10:53:36;29.80;55.30
1534;DHT22;760;48.822;9.304;2023-05-27T10:56:01;29.70;54.80
1534;DHT22;760;48.822;9.304;2023-05-27T10:58:28;29.50;55.30
1534;DHT22;760;48.822;9.304;2023-05-27T11:00:54;29.20;55.50
1534;DHT22;760;48.822;9.304;2023-05-27T11:03:27;29.00;55.60
1534;DHT22;760;48.822;9.304;2023-05-27T11:06:03;29.10;56.70
1534;DHT22;760;48.822;9.304;2023-05-27T11:08:29;29.10;55.80
1534;DHT22;760;48.822;9.304;2023-05-27T11:11:09;28.80;55.60
1534;DHT22;760;48.822;9.304;2023-05-27T11:13:36;27.90;57.10
1534;DHT22;760;48.822;9.304;2023-05-27T11:16:03;27.10;58.20
1534;DHT22;760;48.822;9.304;2023-05-27T11:18:41;26.50;58.90
1534;DHT22;760;48.822;9.304;2023-05-27T11:21:08;26.00;59.60
1534;DHT22;760;48.822;9.304;2023-05-27T11:23:45;25.50;59.60
1534;DHT22;760;48.822;9.304;2023-05-27T11:28:58;25.00;61.20
1534;DHT22;760;48.822;9.304;2023-05-27T11:31:28;24.70;61.40
1534;DHT22;760;48.822;9.304;2023-05-27T11:33:54;24.60;63.70
1534;DHT22;760;48.822;9.304;2023-05-27T11:36:20;24.50;63.00
1534;DHT22;760;48.822;9.304;2023-05-27T11:41:15;24.50;65.20
1534;DHT22;760;48.822;9.304;2023-05-27T11:43:54;24.60;63.00
1534;DHT22;760;48.822;9.304;2023-05-27T11:46:20;24.60;63.20
1534;DHT22;760;48.822;9.304;2023-05-27T11:48:46;24.60;63.40
1534;DHT22;760;48.822;9.304;2023-05-27T11:51:12;24.50;63.50
1534;DHT22;760;48.822;9.304;2023-05-27T11:53:44;24.40;64.10
1534;DHT22;760;48.822;9.304;2023-05-27T11:56:10;24.30;64.80
1534;DHT22;760;48.822;9.304;2023-05-27T11:58:36;24.40;66.90
1534;DHT22;760;48.822;9.304;2023-05-27T12:01:03;24.50;63.80
1534;DHT22;760;48.822;9.304;2023-05-27T12:03:29;24.50;63.70
1534;DHT22;760;48.822;9.304;2023-05-27T12:05:55;24.40;63.30
1534;DHT22;760;48.822;9.304;2023-05-27T12:08:20;24.30;62.50
1534;DHT22;760;48.822;9.304;2023-05-27T12:10:46;24.30;62.50
1534;DHT22;760;48.822;9.304;2023-05-27T12:13:15;24.30;63.60
1534;DHT22;760;48.822;9.304;2023-05-27T12:15:41;24.30;62.80
1534;DHT22;760;48.822;9.304;2023-05-27T12:18:07;24.20;62.30
1534;DHT22;760;48.822;9.304;2023-05-27T12:20:32;24.30;62.60
1534;DHT22;760;48.822;9.304;2023-05-27T12:22:58;24.20;62.10
1534;DHT22;760;48.822;9.304;2023-05-27T12:25:24;24.20;62.90
1534;DHT22;760;48.822;9.304;2023-05-27T12:27:50;24.20;63.20
1534;DHT22;760;48.822;9.304;2023-05-27T12:30:15;24.10;63.00
1534;DHT22;760;48.822;9.304;2023-05-27T12:32:41;24.10;62.40
1534;DHT22;760;48.822;9.304;2023-05-27T12:35:07;24.00;63.20
1534;DHT22;760;48.822;9.304;2023-05-27T12:37:33;24.10;63.90
1534;DHT22;760;48.822;9.304;2023-05-27T12:39:59;24.20;64.90
1534;DHT22;760;48.822;9.304;2023-05-27T12:42:25;24.20;61.50
1534;DHT22;760;48.822;9.304;2023-05-27T12:44:50;24.20;62.60
1534;DHT22;760;48.822;9.304;2023-05-27T12:47:16;24.40;62.50
1534;DHT22;760;48.822;9.304;2023-05-27T12:49:41;24.40;62.30
1534;DHT22;760;48.822;9.304;2023-05-27T12:52:08;24.50;62.70
1534;DHT22;760;48.822;9.304;2023-05-27T12:54:33;24.60;63.60
1534;DHT22;760;48.822;9.304;2023-05-27T12:57:00;24.60;63.40
1534;DHT22;760;48.822;9.304;2023-05-27T12:59:27;24.40;63.70
1534;DHT22;760;48.822;9.304;2023-05-27T13:01:52;24.30;63.80
1534;DHT22;760;48.822;9.304;2023-05-27T13:04:18;24.30;63.40
1534;DHT22;760;48.822;9.304;2023-05-27T13:06:43;24.30;64.10
1534;DHT22;760;48.822;9.304;2023-05-27T13:09:09;24.20;64.10
1534;DHT22;760;48.822;9.304;2023-05-27T13:11:35;24.20;65.40
1534;DHT22;760;48.822;9.304;2023-05-27T13:14:00;24.20;64.40
1534;DHT22;760;48.822;9.304;2023-05-27T13:16:26;24.20;64.00
1534;DHT22;760;48.822;9.304;2023-05-27T13:18:52;24.20;63.00
1534;DHT22;760;48.822;9.304;2023-05-27T13:21:17;24.20;63.00
1534;DHT22;760;48.822;9.304;2023-05-27T13:23:43;24.10;63.70
1534;DHT22;760;48.822;9.304;2023-05-27T13:26:08;24.10;63.90
1534;DHT22;760;48.822;9.304;2023-05-27T13:28:34;24.10;64.00
1534;DHT22;760;48.822;9.304;2023-05-27T13:31:00;24.20;63.90
1534;DHT22;760;48.822;9.304;2023-05-27T13:33:27;24.30;63.40
1534;DHT22;760;48.822;9.304;2023-05-27T13:35:52;24.20;62.70
1534;DHT22;760;48.822;9.304;2023-05-27T13:38:18;24.20;62.80
1534;DHT22;760;48.822;9.304;2023-05-27T13:40:44;24.20;63.40
1534;DHT22;760;48.822;9.304;2023-05-27T13:43:09;24.10;63.70
1534;DHT22;760;48.822;9.304;2023-05-27T13:45:35;24.20;62.10
1534;DHT22;760;48.822;9.304;2023-05-27T13:48:00;24.20;62.00
1534;DHT22;760;48.822;9.304;2023-05-27T13:50:26;24.20;61.80
1534;DHT22;760;48.822;9.304;2023-05-27T13:52:53;24.20;61.80
1534;DHT22;760;48.822;9.304;2023-05-27T13:55:19;24.30;60.30
1534;DHT22;760;48.822;9.304;2023-05-27T13:57:45;24.30;59.10
1534;DHT22;760;48.822;9.304;2023-05-27T14:00:11;24.30;58.20
1534;DHT22;760;48.822;9.304;2023-05-27T14:02:37;24.40;57.70
1534;DHT22;760;48.822;9.304;2023-05-27T14:05:03;24.40;58.20
1534;DHT22;760;48.822;9.304;2023-05-27T14:07:29;24.50;58.80
1534;DHT22;760;48.822;9.304;2023-05-27T14:09:54;24.50;58.70
1534;DHT22;760;48.822;9.304;2023-05-27T14:12:20;24.40;58.20
1534;DHT22;760;48.822;9.304;2023-05-27T14:14:45;24.40;56.50
1534;DHT22;760;48.822;9.304;2023-05-27T14:17:11;24.40;57.60
1534;DHT22;760;48.822;9.304;2023-05-27T14:19:37;24.40;57.40
1534;DHT22;760;48.822;9.304;2023-05-27T14:22:03;24.50;57.00
1534;DHT22;760;48.822;9.304;2023-05-27T14:24:28;24.50;57.60
1534;DHT22;760;48.822;9.304;2023-05-27T14:26:55;24.60;57.50
1534;DHT22;760;48.822;9.304;2023-05-27T14:29:21;24.50;55.00
1534;DHT22;760;48.822;9.304;2023-05-27T14:31:46;24.40;54.40
1534;DHT22;760;48.822;9.304;2023-05-27T14:34:12;24.40;55.80
1534;DHT22;760;48.822;9.304;2023-05-27T14:36:38;24.30;53.40
1534;DHT22;760;48.822;9.304;2023-05-27T14:39:17;24.30;54.30
1534;DHT22;760;48.822;9.304;2023-05-27T14:41:59;24.30;53.00
1534;DHT22;760;48.822;9.304;2023-05-27T14:45:07;24.20;52.50
1534;DHT22;760;48.822;9.304;2023-05-27T14:48:01;24.20;52.90
1534;DHT22;760;48.822;9.304;2023-05-27T14:51:05;24.20;52.40
1534;DHT22;760;48.822;9.304;2023-05-27T14:53:34;24.20;52.40
1534;DHT22;760;48.822;9.304;2023-05-27T14:56:08;24.10;52.50
1534;DHT22;760;48.822;9.304;2023-05-27T14:58:47;24.10;52.50
1534;DHT22;760;48.822;9.304;2023-05-27T15:01:38;24.20;52.90
1534;DHT22;760;48.822;9.304;2023-05-27T15:04:05;24.20;51.90
1534;DHT22;760;48.822;9.304;2023-05-27T15:06:30;24.20;52.30
1534;DHT22;760;48.822;9.304;2023-05-27T15:08:57;24.20;52.20
1534;DHT22;760;48.822;9.304;2023-05-27T15:11:23;24.20;51.70
1534;DHT22;760;48.822;9.304;2023-05-27T15:13:49;24.20;51.70
1534;DHT22;760;48.822;9.304;2023-05-27T15:16:14;24.20;51.70
1534;DHT22;760;48.822;9.304;2023-05-27T15:18:40;24.20;51.80
1534;DHT22;760;48.822;9.304;2023-05-27T15:21:06;24.20;51.20
1534;DHT22;760;48.822;9.304;2023-05-27T15:23:32;24.20;51.70
1534;DHT22;760;48.822;9.304;2023-05-27T15:25:58;24.20;51.30
1534;DHT22;760;48.822;9.304;2023-05-27T15:28:24;24.30;50.70
1534;DHT22;760;48.822;9.304;2023-05-27T15:31:19;24.20;50.00
1534;DHT22;760;48.822;9.304;2023-05-27T15:33:46;24.10;50.80
1534;DHT22;760;48.822;9.304;2023-05-27T15:36:12;24.10;51.50
1534;DHT22;760;48.822;9.304;2023-05-27T15:38:37;24.10;51.00
1534;DHT22;760;48.822;9.304;2023-05-27T15:41:03;24.10;50.30
1534;DHT22;760;48.822;9.304;2023-05-27T15:43:28;24.00;50.50
1534;DHT22;760;48.822;9.304;2023-05-27T15:45:54;24.00;51.10
1534;DHT22;760;48.822;9.304;2023-05-27T15:48:20;24.00;52.50
1534;DHT22;760;48.822;9.304;2023-05-27T15:50:45;24.00;53.50
1534;DHT22;760;48.822;9.304;2023-05-27T15:53:13;24.00;53.20
1534;DHT22;760;48.822;9.304;2023-05-27T15:55:39;24.00;53.80
1534;DHT22;760;48.822;9.304;2023-05-27T15:58:07;24.00;53.60
1534;DHT22;760;48.822;9.304;2023-05-27T16:00:33;23.90;53.40
1534;DHT22;760;48.822;9.304;2023-05-27T16:02:58;23.90;53.60
1534;DHT22;760;48.822;9.304;2023-05-27T16:05:24;23.90;52.80
1534;DHT22;760;48.822;9.304;2023-05-27T16:07:50;23.80;52.60
1534;DHT22;760;48.822;9.304;2023-05-27T16:10:18;23.80;52.70
1534;DHT22;760;48.822;9.304;2023-05-27T16:12:44;23.80;52.80
1534;DHT22;760;48.822;9.304;2023-05-27T16:15:10;23.80;53.30
1534;DHT22;760;48.822;9.304;2023-05-27T16:17:36;23.80;54.10
1534;DHT22;760;48.822;9.304;2023-05-27T16:20:02;23.80;54.90
1534;DHT22;760;48.822;9.304;2023-05-27T16:22:28;23.80;55.00
1534;DHT22;760;48.822;9.304;2023-05-27T16:24:54;23.80;55.60
1534;DHT22;760;48.822;9.304;2023-05-27T16:27:19;23.80;55.30
1534;DHT22;760;48.822;9.304;2023-05-27T16:29:45;23.80;54.40
1534;DHT22;760;48.822;9.304;2023-05-27T16:32:11;23.80;54.60
1534;DHT22;760;48.822;9.304;2023-05-27T16:34:36;23.80;54.60
1534;DHT22;760;48.822;9.304;2023-05-27T16:37:02;23.70;55.10
1534;DHT22;760;48.822;9.304;2023-05-27T16:39:28;23.70;55.60
1534;DHT22;760;48.822;9.304;2023-05-27T16:41:53;23.70;56.10
1534;DHT22;760;48.822;9.304;2023-05-27T16:44:21;23.70;56.70
1534;DHT22;760;48.822;9.304;2023-05-27T16:46:47;23.70;57.30
1534;DHT22;760;48.822;9.304;2023-05-27T16:49:13;23.70;56.50
1534;DHT22;760;48.822;9.304;2023-05-27T16:51:38;23.70;56.70
1534;DHT22;760;48.822;9.304;2023-05-27T16:54:04;23.60;55.90
1534;DHT22;760;48.822;9.304;2023-05-27T16:56:30;23.60;56.40
1534;DHT22;760;48.822;9.304;2023-05-27T16:58:55;23.60;56.50
1534;DHT22;760;48.822;9.304;2023-05-27T17:01:22;23.60;56.20
1534;DHT22;760;48.822;9.304;2023-05-27T17:03:48;23.50;56.40
1534;DHT22;760;48.822;9.304;2023-05-27T17:06:13;23.50;56.70
1534;DHT22;760;48.822;9.304;2023-05-27T17:08:45;23.40;57.10
1534;DHT22;760;48.822;9.304;2023-05-27T17:11:10;23.40;57.30
1534;DHT22;760;48.822;9.304;2023-05-27T17:13:36;23.40;57.70
1534;DHT22;760;48.822;9.304;2023-05-27T17:16:02;23.40;57.70
1534;DHT22;760;48.822;9.304;2023-05-27T17:18:27;23.40;57.60
1534;DHT22;760;48.822;9.304;2023-05-27T17:20:54;23.30;57.20
1534;DHT22;760;48.822;9.304;2023-05-27T17:23:19;23.30;57.50
1534;DHT22;760;48.822;9.304;2023-05-27T17:25:45;23.20;57.90
1534;DHT22;760;48.822;9.304;2023-05-27T17:28:11;23.20;57.80
1534;DHT22;760;48.822;9.304;2023-05-27T17:30:37;23.20;57.90
1534;DHT22;760;48.822;9.304;2023-05-27T17:33:04;23.10;57.20
1534;DHT22;760;48.822;9.304;2023-05-27T17:35:30;23.10;57.00
1534;DHT22;760;48.822;9.304;2023-05-27T17:37:55;23.10;56.90
1534;DHT22;760;48.822;9.304;2023-05-27T17:40:21;23.00;56.80
1534;DHT22;760;48.822;9.304;2023-05-27T17:42:46;23.00;56.30
1534;DHT22;760;48.822;9.304;2023-05-27T17:45:13;22.90;56.00
1534;DHT22;760;48.822;9.304;2023-05-27T17:47:39;22.90;56.20
1534;DHT22;760;48.822;9.304;2023-05-27T17:50:06;22.90;56.70
1534;DHT22;760;48.822;9.304;2023-05-27T17:52:32;22.80;57.00
1534;DHT22;760;48.822;9.304;2023-05-27T17:54:58;22.80;57.50
1534;DHT22;760;48.822;9.304;2023-05-27T17:57:24;22.70;57.80
1534;DHT22;760;48.822;9.304;2023-05-27T17:59:49;22.60;57.90
1534;DHT22;760;48.822;9.304;2023-05-27T18:02:16;22.60;58.70
1534;DHT22;760;48.822;9.304;2023-05-27T18:04:42;22.60;58.50
1534;DHT22;760;48.822;9.304;2023-05-27T18:07:08;22.50;58.80
1534;DHT22;760;48.822;9.304;2023-05-27T18:09:33;22.50;59.00
1534;DHT22;760;48.822;9.304;2023-05-27T18:11:59;22.40;59.30
1534;DHT22;760;48.822;9.304;2023-05-27T18:14:24;22.40;59.50
1534;DHT22;760;48.822;9.304;2023-05-27T18:16:51;22.30;59.70
1534;DHT22;760;48.822;9.304;2023-05-27T18:19:17;22.20;59.40
1534;DHT22;760;48.822;9.304;2023-05-27T18:21:42;22.20;59.50
1534;DHT22;760;48.822;9.304;2023-05-27T18:24:08;22.10;59.80
1534;DHT22;760;48.822;9.304;2023-05-27T18:26:36;22.10;59.90
1534;DHT22;760;48.822;9.304;2023-05-27T18:29:02;22.10;60.00
1534;DHT22;760;48.822;9.304;2023-05-27T18:31:29;22.00;60.20
1534;DHT22;760;48.822;9.304;2023-05-27T18:33:55;21.90;59.90
1534;DHT22;760;48.822;9.304;2023-05-27T18:36:20;21.90;60.10
1534;DHT22;760;48.822;9.304;2023-05-27T18:38:46;21.80;59.90
1534;DHT22;760;48.822;9.304;2023-05-27T18:41:11;21.80;60.20
1534;DHT22;760;48.822;9.304;2023-05-27T18:43:37;21.70;60.60
1534;DHT22;760;48.822;9.304;2023-05-27T18:46:02;21.60;60.50
1534;DHT22;760;48.822;9.304;2023-05-27T18:48:29;21.50;60.80
1534;DHT22;760;48.822;9.304;2023-05-27T18:50:57;21.50;60.70
1534;DHT22;760;48.822;9.304;2023-05-27T18:53:24;21.40;60.80
1534;DHT22;760;48.822;9.304;2023-05-27T18:55:50;21.30;61.20
1534;DHT22;760;48.822;9.304;2023-05-27T18:58:16;21.20;61.60
1534;DHT22;760;48.822;9.304;2023-05-27T19:00:42;21.10;61.80
1534;DHT22;760;48.822;9.304;2023-05-27T19:03:12;21.00;62.00
1534;DHT22;760;48.822;9.304;2023-05-27T19:05:38;20.90;62.20
1534;DHT22;760;48.822;9.304;2023-05-27T19:08:04;21.00;62.50
1534;DHT22;760;48.822;9.304;2023-05-27T19:10:29;20.90;62.60
1534;DHT22;760;48.822;9.304;2023-05-27T19:12:55;20.80;62.90
1534;DHT22;760;48.822;9.304;2023-05-27T19:15:21;20.70;63.10
1534;DHT22;760;48.822;9.304;2023-05-27T19:17:47;20.60;63.50
1534;DHT22;760;48.822;9.304;2023-05-27T19:20:13;20.60;63.90
1534;DHT22;760;48.822;9.304;2023-05-27T19:22:39;20.50;64.10
1534;DHT22;760;48.822;9.304;2023-05-27T19:25:05;20.40;64.30
1534;DHT22;760;48.822;9.304;2023-05-27T19:27:31;20.30;64.50
1534;DHT22;760;48.822;9.304;2023-05-27T19:29:56;20.20;64.90
1534;DHT22;760;48.822;9.304;2023-05-27T19:32:22;20.00;65.40
1534;DHT22;760;48.822;9.304;2023-05-27T19:34:47;19.80;65.80
1534;DHT22;760;48.822;9.304;2023-05-27T19:37:13;19.70;65.90
1534;DHT22;760;48.822;9.304;2023-05-27T19:39:39;19.60;66.20
1534;DHT22;760;48.822;9.304;2023-05-27T19:42:05;19.50;66.60
1534;DHT22;760;48.822;9.304;2023-05-27T19:44:30;19.40;66.80
1534;DHT22;760;48.822;9.304;2023-05-27T19:46:56;19.30;67.10
1534;DHT22;760;48.822;9.304;2023-05-27T19:49:21;19.20;67.90
1534;DHT22;760;48.822;9.304;2023-05-27T19:51:47;19.10;68.00
1534;DHT22;760;48.822;9.304;2023-05-27T19:54:12;19.10;68.50
1534;DHT22;760;48.822;9.304;2023-05-27T19:56:38;19.00;68.50
1534;DHT22;760;48.822;9.304;2023-05-27T19:59:04;19.00;68.60
1534;DHT22;760;48.822;9.304;2023-05-27T20:01:30;18.90;69.10
1534;DHT22;760;48.822;9.304;2023-05-27T20:03:55;18.80;69.70
1534;DHT22;760;48.822;9.304;2023-05-27T20:06:25;18.80;69.80
1534;DHT22;760;48.822;9.304;2023-05-27T20:08:51;18.70;69.70
1534;DHT22;760;48.822;9.304;2023-05-27T20:11:16;18.60;69.90
1534;DHT22;760;48.822;9.304;2023-05-27T20:13:42;18.60;69.90
1534;DHT22;760;48.822;9.304;2023-05-27T20:16:08;18.60;70.00
1534;DHT22;760;48.822;9.304;2023-05-27T20:18:34;18.60;70.20
1534;DHT22;760;48.822;9.304;2023-05-27T20:20:59;18.60;70.50
1534;DHT22;760;48.822;9.304;2023-05-27T20:23:25;18.60;70.70
1534;DHT22;760;48.822;9.304;2023-05-27T20:25:51;18.50;70.70
1534;DHT22;760;48.822;9.304;2023-05-27T20:28:16;18.40;71.20
1534;DHT22;760;48.822;9.304;2023-05-27T20:30:43;18.40;71.60